sensor_id;sensor_type;location;lat;lon;timestamp;P1;P2;P0
62591;PMS5003;48659;41.622;2.276;2023-02-28T00:01:22;11;8;
62591;PMS5003;48659;41.622;2.276;2023-02-28T00:03:50;8;6;
62591;PMS5003;48659;41.622;2.276;2023-02-28T00:06:18;7;7;
62591;PMS5003;48659;41.622;2.276;2023-02-28T00:08:46;8;6;
62591;PMS5003;48659;41.622;2.276;2023-02-28T00:11:20;8;7;
62591;PMS5003;48659;41.622;2.276;2023-02-28T00:13:48;8;7;
62591;PMS5003;48659;41.622;2.276;2023-02-28T00:16:16;8;7;
62591;PMS5003;48659;41.622;2.276;2023-02-28T00:18:45;9;8;
62591;PMS5003;48659;41.622;2.276;2023-02-28T00:21:14;7;6;
62591;PMS5003;48659;41.622;2.276;2023-02-28T00:23:42;6;6;
62591;PMS5003;48659;41.622;2.276;2023-02-28T00:26:10;8;7;
62591;PMS5003;48659;41.622;2.276;2023-02-28T00:28:37;7;6;
62591;PMS5003;48659;41.622;2.276;2023-02-28T00:31:04;8;6;
62591;PMS5003;48659;41.622;2.276;2023-02-28T00:33:32;9;8;
62591;PMS5003;48659;41.622;2.276;2023-02-28T00:36:01;7;7;
62591;PMS5003;48659;41.622;2.276;2023-02-28T00:38:30;9;7;
62591;PMS5003;48659;41.622;2.276;2023-02-28T00:40:57;6;6;
62591;PMS5003;48659;41.622;2.276;2023-02-28T00:43:24;7;6;
62591;PMS5003;48659;41.622;2.276;2023-02-28T00:45:53;7;7;
62591;PMS5003;48659;41.622;2.276;2023-02-28T00:48:22;8;6;
62591;PMS5003;48659;41.622;2.276;2023-02-28T00:50:50;6;6;
62591;PMS5003;48659;41.622;2.276;2023-02-28T00:53:18;8;6;
62591;PMS5003;48659;41.622;2.276;2023-02-28T00:55:45;5;5;
62591;PMS5003;48659;41.622;2.276;2023-02-28T00:58:12;7;7;
62591;PMS5003;48659;41.622;2.276;2023-02-28T01:00:41;9;9;
62591;PMS5003;48659;41.622;2.276;2023-02-28T01:03:09;6;6;
62591;PMS5003;48659;41.622;2.276;2023-02-28T01:05:37;4;4;
62591;PMS5003;48659;41.622;2.276;2023-02-28T01:08:04;8;8;
62591;PMS5003;48659;41.622;2.276;2023-02-28T01:10:32;6;6;
62591;PMS5003;48659;41.622;2.276;2023-02-28T01:13:00;6;6;
62591;PMS5003;48659;41.622;2.276;2023-02-28T01:15:27;7;7;
62591;PMS5003;48659;41.622;2.276;2023-02-28T01:17:54;4;4;
62591;PMS5003;48659;41.622;2.276;2023-02-28T01:20:22;5;5;
62591;PMS5003;48659;41.622;2.276;2023-02-28T01:22:50;5;5;
62591;PMS5003;48659;41.622;2.276;2023-02-28T01:25:17;7;6;
62591;PMS5003;48659;41.622;2.276;2023-02-28T01:27:45;5;5;
62591;PMS5003;48659;41.622;2.276;2023-02-28T01:30:19;6;6;
62591;PMS5003;48659;41.622;2.276;2023-02-28T01:32:47;6;4;
62591;PMS5003;48659;41.622;2.276;2023-02-28T01:35:14;6;6;
62591;PMS5003;48659;41.622;2.276;2023-02-28T01:37:41;5;5;
62591;PMS5003;48659;41.622;2.276;2023-02-28T01:40:08;6;6;
62591;PMS5003;48659;41.622;2.276;2023-02-28T01:42:45;9;6;
62591;PMS5003;48659;41.622;2.276;2023-02-28T01:45:22;8;5;
62591;PMS5003;48659;41.622;2.276;2023-02-28T01:47:52;6;6;
62591;PMS5003;48659;41.622;2.276;2023-02-28T01:50:26;7;7;
62591;PMS5003;48659;41.622;2.276;2023-02-28T01:53:00;8;8;
62591;PMS5003;48659;41.622;2.276;2023-02-28T01:55:30;7;6;
62591;PMS5003;48659;41.622;2.276;2023-02-28T01:58:00;8;8;
62591;PMS5003;48659;41.622;2.276;2023-02-28T02:00:31;8;8;
62591;PMS5003;48659;41.622;2.276;2023-02-28T02:02:59;8;7;
62591;PMS5003;48659;41.622;2.276;2023-02-28T02:05:30;7;7;
62591;PMS5003;48659;41.622;2.276;2023-02-28T02:08:01;7;7;
62591;PMS5003;48659;41.622;2.276;2023-02-28T02:10:32;7;7;
62591;PMS5003;48659;41.622;2.276;2023-02-28T02:13:07;7;7;
62591;PMS5003;48659;41.622;2.276;2023-02-28T02:15:47;7;7;
62591;PMS5003;48659;41.622;2.276;2023-02-28T02:18:23;5;4;
62591;PMS5003;48659;41.622;2.276;2023-02-28T02:21:07;4;4;
62591;PMS5003;48659;41.622;2.276;2023-02-28T02:24:00;7;7;
62591;PMS5003;48659;41.622;2.276;2023-02-28T02:26:47;8;6;
62591;PMS5003;48659;41.622;2.276;2023-02-28T02:29:47;6;6;
62591;PMS5003;48659;41.622;2.276;2023-02-28T02:32:41;9;9;
62591;PMS5003;48659;41.622;2.276;2023-02-28T02:35:22;7;7;
62591;PMS5003;48659;41.622;2.276;2023-02-28T02:37:55;9;8;
62591;PMS5003;48659;41.622;2.276;2023-02-28T02:40:30;8;8;
62591;PMS5003;48659;41.622;2.276;2023-02-28T02:43:03;8;7;
62591;PMS5003;48659;41.622;2.276;2023-02-28T02:45:37;6;6;
62591;PMS5003;48659;41.622;2.276;2023-02-28T02:48:24;8;3;
62591;PMS5003;48659;41.622;2.276;2023-02-28T02:50:56;5;3;
62591;PMS5003;48659;41.622;2.276;2023-02-28T02:53:27;8;8;
62591;PMS5003;48659;41.622;2.276;2023-02-28T02:55:59;6;6;
62591;PMS5003;48659;41.622;2.276;2023-02-28T02:58:30;4;4;
62591;PMS5003;48659;41.622;2.276;2023-02-28T03:01:02;7;5;
62591;PMS5003;48659;41.622;2.276;2023-02-28T03:03:31;5;5;
62591;PMS5003;48659;41.622;2.276;2023-02-28T03:06:00;5;5;
62591;PMS5003;48659;41.622;2.276;2023-02-28T03:08:29;4;4;
62591;PMS5003;48659;41.622;2.276;2023-02-28T03:11:03;3;3;
62591;PMS5003;48659;41.622;2.276;2023-02-28T03:13:37;4;3;
62591;PMS5003;48659;41.622;2.276;2023-02-28T03:16:22;5;5;
62591;PMS5003;48659;41.622;2.276;2023-02-28T03:19:01;5;5;
62591;PMS5003;48659;41.622;2.276;2023-02-28T03:21:40;2;2;
62591;PMS5003;48659;41.622;2.276;2023-02-28T03:24:17;6;3;
62591;PMS5003;48659;41.622;2.276;2023-02-28T03:26:52;4;4;
62591;PMS5003;48659;41.622;2.276;2023-02-28T03:29:23;4;3;
62591;PMS5003;48659;41.622;2.276;2023-02-28T03:32:02;3;3;
62591;PMS5003;48659;41.622;2.276;2023-02-28T03:34:36;2;1;
62591;PMS5003;48659;41.622;2.276;2023-02-28T03:37:08;4;4;
62591;PMS5003;48659;41.622;2.276;2023-02-28T03:39:40;4;4;
62591;PMS5003;48659;41.622;2.276;2023-02-28T03:42:19;3;3;
62591;PMS5003;48659;41.622;2.276;2023-02-28T03:44:51;5;4;
62591;PMS5003;48659;41.622;2.276;2023-02-28T03:47:24;6;5;
62591;PMS5003;48659;41.622;2.276;2023-02-28T03:49:56;3;3;
62591;PMS5003;48659;41.622;2.276;2023-02-28T03:52:28;1;1;
62591;PMS5003;48659;41.622;2.276;2023-02-28T03:55:02;1;1;
62591;PMS5003;48659;41.622;2.276;2023-02-28T03:57:34;5;3;
62591;PMS5003;48659;41.622;2.276;2023-02-28T04:00:07;3;3;
62591;PMS5003;48659;41.622;2.276;2023-02-28T04:02:40;3;3;
62591;PMS5003;48659;41.622;2.276;2023-02-28T04:05:08;3;3;
62591;PMS5003;48659;41.622;2.276;2023-02-28T04:07:36;2;2;
62591;PMS5003;48659;41.622;2.276;2023-02-28T04:10:04;4;4;
62591;PMS5003;48659;41.622;2.276;2023-02-28T04:12:33;4;4;
62591;PMS5003;48659;41.622;2.276;2023-02-28T04:15:01;3;3;
62591;PMS5003;48659;41.622;2.276;2023-02-28T04:17:28;4;4;
62591;PMS5003;48659;41.622;2.276;2023-02-28T04:19:56;3;3;
62591;PMS5003;48659;41.622;2.276;2023-02-28T04:22:23;3;3;
62591;PMS5003;48659;41.622;2.276;2023-02-28T04:24:51;3;3;
62591;PMS5003;48659;41.622;2.276;2023-02-28T04:27:19;3;3;
62591;PMS5003;48659;41.622;2.276;2023-02-28T04:29:47;3;3;
62591;PMS5003;48659;41.622;2.276;2023-02-28T04:32:18;3;3;
62591;PMS5003;48659;41.622;2.276;2023-02-28T04:34:46;2;2;
62591;PMS5003;48659;41.622;2.276;2023-02-28T04:37:13;3;3;
62591;PMS5003;48659;41.622;2.276;2023-02-28T04:39:41;2;2;
62591;PMS5003;48659;41.622;2.276;2023-02-28T04:42:09;4;3;
62591;PMS5003;48659;41.622;2.276;2023-02-28T04:44:37;5;3;
62591;PMS5003;48659;41.622;2.276;2023-02-28T04:47:05;4;4;
62591;PMS5003;48659;41.622;2.276;2023-02-28T04:49:33;3;3;
62591;PMS5003;48659;41.622;2.276;2023-02-28T04:52:00;6;3;
62591;PMS5003;48659;41.622;2.276;2023-02-28T04:54:27;4;4;
62591;PMS5003;48659;41.622;2.276;2023-02-28T04:56:55;2;2;
62591;PMS5003;48659;41.622;2.276;2023-02-28T04:59:22;6;4;
62591;PMS5003;48659;41.622;2.276;2023-02-28T05:01:50;3;1;
62591;PMS5003;48659;41.622;2.276;2023-02-28T05:04:17;4;3;
62591;PMS5003;48659;41.622;2.276;2023-02-28T05:06:44;3;3;
62591;PMS5003;48659;41.622;2.276;2023-02-28T05:09:11;0;0;
62591;PMS5003;48659;41.622;2.276;2023-02-28T05:11:39;2;2;
62591;PMS5003;48659;41.622;2.276;2023-02-28T05:14:10;2;2;
62591;PMS5003;48659;41.622;2.276;2023-02-28T05:16:40;2;2;
62591;PMS5003;48659;41.622;2.276;2023-02-28T05:19:07;2;2;
62591;PMS5003;48659;41.622;2.276;2023-02-28T05:21:36;3;3;
62591;PMS5003;48659;41.622;2.276;2023-02-28T05:24:06;3;3;
62591;PMS5003;48659;41.622;2.276;2023-02-28T05:26:36;6;6;
62591;PMS5003;48659;41.622;2.276;2023-02-28T05:29:05;5;4;
62591;PMS5003;48659;41.622;2.276;2023-02-28T05:31:32;3;3;
62591;PMS5003;48659;41.622;2.276;2023-02-28T05:34:00;4;4;
62591;PMS5003;48659;41.622;2.276;2023-02-28T05:36:28;4;4;
62591;PMS5003;48659;41.622;2.276;2023-02-28T05:38:56;3;3;
62591;PMS5003;48659;41.622;2.276;2023-02-28T05:41:24;5;3;
62591;PMS5003;48659;41.622;2.276;2023-02-28T05:43:52;6;4;
62591;PMS5003;48659;41.622;2.276;2023-02-28T05:46:19;5;5;
62591;PMS5003;48659;41.622;2.276;2023-02-28T05:48:47;11;10;
62591;PMS5003;48659;41.622;2.276;2023-02-28T05:51:15;9;9;
62591;PMS5003;48659;41.622;2.276;2023-02-28T05:53:43;10;9;
62591;PMS5003;48659;41.622;2.276;2023-02-28T05:56:11;10;8;
62591;PMS5003;48659;41.622;2.276;2023-02-28T05:58:39;8;8;
62591;PMS5003;48659;41.622;2.276;2023-02-28T06:01:25;6;6;
62591;PMS5003;48659;41.622;2.276;2023-02-28T06:03:59;9;7;
62591;PMS5003;48659;41.622;2.276;2023-02-28T06:06:28;7;7;
62591;PMS5003;48659;41.622;2.276;2023-02-28T06:08:56;12;12;
62591;PMS5003;48659;41.622;2.276;2023-02-28T06:11:23;11;10;
62591;PMS5003;48659;41.622;2.276;2023-02-28T06:13:52;7;7;
62591;PMS5003;48659;41.622;2.276;2023-02-28T06:16:20;11;7;
62591;PMS5003;48659;41.622;2.276;2023-02-28T06:18:48;8;8;
62591;PMS5003;48659;41.622;2.276;2023-02-28T06:21:16;8;8;
62591;PMS5003;48659;41.622;2.276;2023-02-28T06:23:43;10;8;
62591;PMS5003;48659;41.622;2.276;2023-02-28T06:26:11;11;9;
62591;PMS5003;48659;41.622;2.276;2023-02-28T06:28:39;7;6;
62591;PMS5003;48659;41.622;2.276;2023-02-28T06:31:07;11;8;
62591;PMS5003;48659;41.622;2.276;2023-02-28T06:33:37;8;8;
62591;PMS5003;48659;41.622;2.276;2023-02-28T06:36:06;8;8;
62591;PMS5003;48659;41.622;2.276;2023-02-28T06:38:35;15;15;
62591;PMS5003;48659;41.622;2.276;2023-02-28T06:41:04;8;8;
62591;PMS5003;48659;41.622;2.276;2023-02-28T06:43:33;12;10;
62591;PMS5003;48659;41.622;2.276;2023-02-28T06:46:02;7;7;
62591;PMS5003;48659;41.622;2.276;2023-02-28T06:48:31;10;10;
62591;PMS5003;48659;41.622;2.276;2023-02-28T06:51:01;19;19;
62591;PMS5003;48659;41.622;2.276;2023-02-28T06:53:30;14;13;
62591;PMS5003;48659;41.622;2.276;2023-02-28T06:55:57;19;17;
62591;PMS5003;48659;41.622;2.276;2023-02-28T06:58:24;13;10;
62591;PMS5003;48659;41.622;2.276;2023-02-28T07:00:52;13;13;
62591;PMS5003;48659;41.622;2.276;2023-02-28T07:03:19;12;10;
62591;PMS5003;48659;41.622;2.276;2023-02-28T07:05:46;12;12;
62591;PMS5003;48659;41.622;2.276;2023-02-28T07:08:14;12;12;
62591;PMS5003;48659;41.622;2.276;2023-02-28T07:10:41;15;14;
62591;PMS5003;48659;41.622;2.276;2023-02-28T07:13:10;18;16;
62591;PMS5003;48659;41.622;2.276;2023-02-28T07:15:38;17;13;
62591;PMS5003;48659;41.622;2.276;2023-02-28T07:18:06;10;10;
62591;PMS5003;48659;41.622;2.276;2023-02-28T07:20:34;10;10;
62591;PMS5003;48659;41.622;2.276;2023-02-28T07:23:02;11;11;
62591;PMS5003;48659;41.622;2.276;2023-02-28T07:25:29;10;10;
62591;PMS5003;48659;41.622;2.276;2023-02-28T07:27:56;6;6;
62591;PMS5003;48659;41.622;2.276;2023-02-28T07:30:23;10;10;
62591;PMS5003;48659;41.622;2.276;2023-02-28T07:32:50;10;10;
62591;PMS5003;48659;41.622;2.276;2023-02-28T07:35:18;10;10;
62591;PMS5003;48659;41.622;2.276;2023-02-28T07:37:46;9;9;
62591;PMS5003;48659;41.622;2.276;2023-02-28T07:40:15;10;9;
62591;PMS5003;48659;41.622;2.276;2023-02-28T07:42:43;12;10;
62591;PMS5003;48659;41.622;2.276;2023-02-28T07:45:11;11;11;
62591;PMS5003;48659;41.622;2.276;2023-02-28T07:47:39;11;10;
62591;PMS5003;48659;41.622;2.276;2023-02-28T07:50:08;10;8;
62591;PMS5003;48659;41.622;2.276;2023-02-28T07:52:37;11;9;
62591;PMS5003;48659;41.622;2.276;2023-02-28T07:55:05;12;12;
62591;PMS5003;48659;41.622;2.276;2023-02-28T07:57:34;11;11;
62591;PMS5003;48659;41.622;2.276;2023-02-28T08:00:02;13;12;
62591;PMS5003;48659;41.622;2.276;2023-02-28T08:02:31;13;10;
62591;PMS5003;48659;41.622;2.276;2023-02-28T08:04:59;15;12;
62591;PMS5003;48659;41.622;2.276;2023-02-28T08:07:27;10;10;
62591;PMS5003;48659;41.622;2.276;2023-02-28T08:09:54;14;14;
62591;PMS5003;48659;41.622;2.276;2023-02-28T08:12:21;11;11;
62591;PMS5003;48659;41.622;2.276;2023-02-28T08:14:49;12;11;
62591;PMS5003;48659;41.622;2.276;2023-02-28T08:17:16;11;9;
62591;PMS5003;48659;41.622;2.276;2023-02-28T08:19:45;12;12;
62591;PMS5003;48659;41.622;2.276;2023-02-28T08:22:13;12;12;
62591;PMS5003;48659;41.622;2.276;2023-02-28T08:24:40;14;12;
62591;PMS5003;48659;41.622;2.276;2023-02-28T08:27:09;10;10;
62591;PMS5003;48659;41.622;2.276;2023-02-28T08:29:37;15;14;
62591;PMS5003;48659;41.622;2.276;2023-02-28T08:32:04;12;12;
62591;PMS5003;48659;41.622;2.276;2023-02-28T08:34:32;10;10;
62591;PMS5003;48659;41.622;2.276;2023-02-28T08:37:00;11;11;
62591;PMS5003;48659;41.622;2.276;2023-02-28T08:39:27;16;12;
62591;PMS5003;48659;41.622;2.276;2023-02-28T08:41:55;12;12;
62591;PMS5003;48659;41.622;2.276;2023-02-28T08:44:22;14;12;
62591;PMS5003;48659;41.622;2.276;2023-02-28T08:46:50;10;10;
62591;PMS5003;48659;41.622;2.276;2023-02-28T08:49:17;12;11;
62591;PMS5003;48659;41.622;2.276;2023-02-28T08:51:44;12;11;
62591;PMS5003;48659;41.622;2.276;2023-02-28T08:54:11;16;15;
62591;PMS5003;48659;41.622;2.276;2023-02-28T08:56:39;9;9;
62591;PMS5003;48659;41.622;2.276;2023-02-28T08:59:08;13;13;
62591;PMS5003;48659;41.622;2.276;2023-02-28T09:01:36;12;12;
62591;PMS5003;48659;41.622;2.276;2023-02-28T09:04:03;13;13;
62591;PMS5003;48659;41.622;2.276;2023-02-28T09:06:30;9;9;
62591;PMS5003;48659;41.622;2.276;2023-02-28T09:08:58;9;9;
62591;PMS5003;48659;41.622;2.276;2023-02-28T09:11:26;13;13;
62591;PMS5003;48659;41.622;2.276;2023-02-28T09:13:54;15;14;
62591;PMS5003;48659;41.622;2.276;2023-02-28T09:16:21;10;10;
62591;PMS5003;48659;41.622;2.276;2023-02-28T09:18:49;14;12;
62591;PMS5003;48659;41.622;2.276;2023-02-28T09:21:17;16;13;
62591;PMS5003;48659;41.622;2.276;2023-02-28T09:23:47;14;14;
62591;PMS5003;48659;41.622;2.276;2023-02-28T09:26:16;20;17;
62591;PMS5003;48659;41.622;2.276;2023-02-28T09:28:45;20;17;
62591;PMS5003;48659;41.622;2.276;2023-02-28T09:31:20;22;22;
62591;PMS5003;48659;41.622;2.276;2023-02-28T09:33:50;22;21;
62591;PMS5003;48659;41.622;2.276;2023-02-28T09:36:24;23;21;
62591;PMS5003;48659;41.622;2.276;2023-02-28T09:38:53;19;16;
62591;PMS5003;48659;41.622;2.276;2023-02-28T09:41:21;20;20;
62591;PMS5003;48659;41.622;2.276;2023-02-28T09:43:51;27;23;
62591;PMS5003;48659;41.622;2.276;2023-02-28T09:46:26;19;18;
62591;PMS5003;48659;41.622;2.276;2023-02-28T09:48:58;19;17;
62591;PMS5003;48659;41.622;2.276;2023-02-28T09:51:34;22;20;
62591;PMS5003;48659;41.622;2.276;2023-02-28T09:54:09;20;18;
62591;PMS5003;48659;41.622;2.276;2023-02-28T09:56:55;26;22;
62591;PMS5003;48659;41.622;2.276;2023-02-28T09:59:30;16;15;
62591;PMS5003;48659;41.622;2.276;2023-02-28T10:02:10;14;12;
62591;PMS5003;48659;41.622;2.276;2023-02-28T10:04:50;11;10;
62591;PMS5003;48659;41.622;2.276;2023-02-28T10:07:31;14;13;
62591;PMS5003;48659;41.622;2.276;2023-02-28T10:10:15;15;15;
62591;PMS5003;48659;41.622;2.276;2023-02-28T10:12:48;17;14;
62591;PMS5003;48659;41.622;2.276;2023-02-28T10:15:19;13;12;
62591;PMS5003;48659;41.622;2.276;2023-02-28T10:17:51;14;14;
62591;PMS5003;48659;41.622;2.276;2023-02-28T10:20:23;15;15;
62591;PMS5003;48659;41.622;2.276;2023-02-28T10:22:52;12;12;
62591;PMS5003;48659;41.622;2.276;2023-02-28T10:25:24;10;10;
62591;PMS5003;48659;41.622;2.276;2023-02-28T10:27:53;13;12;
62591;PMS5003;48659;41.622;2.276;2023-02-28T10:30:25;16;15;
62591;PMS5003;48659;41.622;2.276;2023-02-28T10:32:53;15;14;
62591;PMS5003;48659;41.622;2.276;2023-02-28T10:35:21;16;14;
62591;PMS5003;48659;41.622;2.276;2023-02-28T10:37:51;13;13;
62591;PMS5003;48659;41.622;2.276;2023-02-28T10:40:28;19;18;
62591;PMS5003;48659;41.622;2.276;2023-02-28T10:42:58;12;12;
62591;PMS5003;48659;41.622;2.276;2023-02-28T10:45:28;10;10;
62591;PMS5003;48659;41.622;2.276;2023-02-28T10:47:58;17;13;
62591;PMS5003;48659;41.622;2.276;2023-02-28T10:50:28;14;12;
62591;PMS5003;48659;41.622;2.276;2023-02-28T10:54:14;6;6;
62591;PMS5003;48659;41.622;2.276;2023-02-28T10:56:43;11;10;
62591;PMS5003;48659;41.622;2.276;2023-02-28T10:59:23;13;11;
62591;PMS5003;48659;41.622;2.276;2023-02-28T11:01:54;9;9;
62591;PMS5003;48659;41.622;2.276;2023-02-28T11:04:32;14;12;
62591;PMS5003;48659;41.622;2.276;2023-02-28T11:07:02;13;12;
62591;PMS5003;48659;41.622;2.276;2023-02-28T11:09:32;11;11;
62591;PMS5003;48659;41.622;2.276;2023-02-28T11:12:00;9;9;
62591;PMS5003;48659;41.622;2.276;2023-02-28T11:14:31;13;11;
62591;PMS5003;48659;41.622;2.276;2023-02-28T11:17:13;17;16;
62591;PMS5003;48659;41.622;2.276;2023-02-28T11:19:48;14;13;
62591;PMS5003;48659;41.622;2.276;2023-02-28T11:22:20;12;12;
62591;PMS5003;48659;41.622;2.276;2023-02-28T11:24:54;18;16;
62591;PMS5003;48659;41.622;2.276;2023-02-28T11:27:25;15;13;
62591;PMS5003;48659;41.622;2.276;2023-02-28T11:30:12;12;12;
62591;PMS5003;48659;41.622;2.276;2023-02-28T11:32:56;13;9;
62591;PMS5003;48659;41.622;2.276;2023-02-28T11:35:24;15;15;
62591;PMS5003;48659;41.622;2.276;2023-02-28T11:37:55;13;10;
62591;PMS5003;48659;41.622;2.276;2023-02-28T11:40:25;18;15;
62591;PMS5003;48659;41.622;2.276;2023-02-28T11:43:06;12;11;
62591;PMS5003;48659;41.622;2.276;2023-02-28T11:45:58;11;8;
62591;PMS5003;48659;41.622;2.276;2023-02-28T11:48:33;11;11;
62591;PMS5003;48659;41.622;2.276;2023-02-28T11:51:21;12;12;
62591;PMS5003;48659;41.622;2.276;2023-02-28T11:53:58;11;11;
62591;PMS5003;48659;41.622;2.276;2023-02-28T11:56:40;8;8;
62591;PMS5003;48659;41.622;2.276;2023-02-28T11:59:14;7;7;
62591;PMS5003;48659;41.622;2.276;2023-02-28T12:02:03;9;9;
62591;PMS5003;48659;41.622;2.276;2023-02-28T12:04:47;9;9;
62591;PMS5003;48659;41.622;2.276;2023-02-28T12:07:30;12;10;
62591;PMS5003;48659;41.622;2.276;2023-02-28T12:10:09;11;11;
62591;PMS5003;48659;41.622;2.276;2023-02-28T12:12:48;12;11;
62591;PMS5003;48659;41.622;2.276;2023-02-28T12:15:32;13;13;
62591;PMS5003;48659;41.622;2.276;2023-02-28T12:18:15;11;11;
62591;PMS5003;48659;41.622;2.276;2023-02-28T12:21:01;9;9;
62591;PMS5003;48659;41.622;2.276;2023-02-28T12:23:41;11;10;
62591;PMS5003;48659;41.622;2.276;2023-02-28T12:26:19;16;12;
62591;PMS5003;48659;41.622;2.276;2023-02-28T12:28:53;11;10;
62591;PMS5003;48659;41.622;2.276;2023-02-28T12:31:27;10;9;
62591;PMS5003;48659;41.622;2.276;2023-02-28T12:34:03;16;15;
62591;PMS5003;48659;41.622;2.276;2023-02-28T12:36:34;11;11;
62591;PMS5003;48659;41.622;2.276;2023-02-28T12:39:04;3;3;
62591;PMS5003;48659;41.622;2.276;2023-02-28T12:41:39;7;5;
62591;PMS5003;48659;41.622;2.276;2023-02-28T12:44:09;5;5;
62591;PMS5003;48659;41.622;2.276;2023-02-28T12:46:43;5;5;
62591;PMS5003;48659;41.622;2.276;2023-02-28T12:49:15;5;5;
62591;PMS5003;48659;41.622;2.276;2023-02-28T12:51:46;6;5;
62591;PMS5003;48659;41.622;2.276;2023-02-28T12:54:17;8;7;
62591;PMS5003;48659;41.622;2.276;2023-02-28T12:56:53;7;7;
62591;PMS5003;48659;41.622;2.276;2023-02-28T12:59:29;6;6;
62591;PMS5003;48659;41.622;2.276;2023-02-28T13:04:24;6;5;
62591;PMS5003;48659;41.622;2.276;2023-02-28T13:07:47;6;5;
62591;PMS5003;48659;41.622;2.276;2023-02-28T13:10:38;7;7;
62591;PMS5003;48659;41.622;2.276;2023-02-28T13:13:11;5;5;
62591;PMS5003;48659;41.622;2.276;2023-02-28T13:15:53;5;5;
62591;PMS5003;48659;41.622;2.276;2023-02-28T13:18:28;6;5;
62591;PMS5003;48659;41.622;2.276;2023-02-28T13:20:58;5;4;
62591;PMS5003;48659;41.622;2.276;2023-02-28T13:24:00;5;4;
62591;PMS5003;48659;41.622;2.276;2023-02-28T13:27:10;8;7;
62591;PMS5003;48659;41.622;2.276;2023-02-28T13:29:58;6;5;
62591;PMS5003;48659;41.622;2.276;2023-02-28T13:32:29;7;5;
62591;PMS5003;48659;41.622;2.276;2023-02-28T13:35:35;5;5;
62591;PMS5003;48659;41.622;2.276;2023-02-28T13:38:38;5;4;
62591;PMS5003;48659;41.622;2.276;2023-02-28T13:42:49;3;3;
62591;PMS5003;48659;41.622;2.276;2023-02-28T13:45:20;5;3;
62591;PMS5003;48659;41.622;2.276;2023-02-28T13:47:52;3;3;
62591;PMS5003;48659;41.622;2.276;2023-02-28T13:50:23;5;5;
62591;PMS5003;48659;41.622;2.276;2023-02-28T13:52:59;4;4;
62591;PMS5003;48659;41.622;2.276;2023-02-28T13:55:49;3;3;
62591;PMS5003;48659;41.622;2.276;2023-02-28T13:58:27;3;3;
62591;PMS5003;48659;41.622;2.276;2023-02-28T14:01:08;2;1;
62591;PMS5003;48659;41.622;2.276;2023-02-28T14:04:09;5;3;
62591;PMS5003;48659;41.622;2.276;2023-02-28T14:06:49;3;3;
62591;PMS5003;48659;41.622;2.276;2023-02-28T14:09:23;9;7;
62591;PMS5003;48659;41.622;2.276;2023-02-28T14:11:52;6;6;
62591;PMS5003;48659;41.622;2.276;2023-02-28T14:16:36;4;4;
62591;PMS5003;48659;41.622;2.276;2023-02-28T14:19:10;3;3;
62591;PMS5003;48659;41.622;2.276;2023-02-28T14:21:45;5;5;
62591;PMS5003;48659;41.622;2.276;2023-02-28T14:24:29;6;6;
62591;PMS5003;48659;41.622;2.276;2023-02-28T14:27:33;5;4;
62591;PMS5003;48659;41.622;2.276;2023-02-28T14:30:13;4;4;
62591;PMS5003;48659;41.622;2.276;2023-02-28T14:32:58;5;5;
62591;PMS5003;48659;41.622;2.276;2023-02-28T14:35:52;9;5;
62591;PMS5003;48659;41.622;2.276;2023-02-28T14:38:27;5;4;
62591;PMS5003;48659;41.622;2.276;2023-02-28T14:41:00;3;3;
62591;PMS5003;48659;41.622;2.276;2023-02-28T14:43:30;8;7;
62591;PMS5003;48659;41.622;2.276;2023-02-28T14:45:59;10;10;
62591;PMS5003;48659;41.622;2.276;2023-02-28T14:48:28;15;13;
62591;PMS5003;48659;41.622;2.276;2023-02-28T14:50:57;12;12;
62591;PMS5003;48659;41.622;2.276;2023-02-28T14:53:27;9;9;
62591;PMS5003;48659;41.622;2.276;2023-02-28T14:55:56;11;11;
62591;PMS5003;48659;41.622;2.276;2023-02-28T14:58:25;15;13;
62591;PMS5003;48659;41.622;2.276;2023-02-28T15:00:54;19;13;
62591;PMS5003;48659;41.622;2.276;2023-02-28T15:03:29;15;14;
62591;PMS5003;48659;41.622;2.276;2023-02-28T15:06:02;13;11;
62591;PMS5003;48659;41.622;2.276;2023-02-28T15:08:32;16;14;
62591;PMS5003;48659;41.622;2.276;2023-02-28T15:11:00;12;11;
62591;PMS5003;48659;41.622;2.276;2023-02-28T15:13:34;13;12;
62591;PMS5003;48659;41.622;2.276;2023-02-28T15:16:06;15;12;
62591;PMS5003;48659;41.622;2.276;2023-02-28T15:18:42;11;10;
62591;PMS5003;48659;41.622;2.276;2023-02-28T15:21:20;3;3;
62591;PMS5003;48659;41.622;2.276;2023-02-28T15:23:52;3;3;
62591;PMS5003;48659;41.622;2.276;2023-02-28T15:26:24;4;3;
62591;PMS5003;48659;41.622;2.276;2023-02-28T15:28:57;5;4;
62591;PMS5003;48659;41.622;2.276;2023-02-28T15:31:28;5;4;
62591;PMS5003;48659;41.622;2.276;2023-02-28T15:34:03;3;3;
62591;PMS5003;48659;41.622;2.276;2023-02-28T15:36:33;3;3;
62591;PMS5003;48659;41.622;2.276;2023-02-28T15:39:01;2;2;
62591;PMS5003;48659;41.622;2.276;2023-02-28T15:41:30;4;4;
62591;PMS5003;48659;41.622;2.276;2023-02-28T15:44:35;5;5;
62591;PMS5003;48659;41.622;2.276;2023-02-28T15:47:04;3;3;
62591;PMS5003;48659;41.622;2.276;2023-02-28T15:49:37;7;7;
62591;PMS5003;48659;41.622;2.276;2023-02-28T15:52:09;9;9;
62591;PMS5003;48659;41.622;2.276;2023-02-28T15:54:45;15;12;
62591;PMS5003;48659;41.622;2.276;2023-02-28T15:57:14;14;14;
62591;PMS5003;48659;41.622;2.276;2023-02-28T15:59:48;19;15;
62591;PMS5003;48659;41.622;2.276;2023-02-28T16:02:19;16;13;
62591;PMS5003;48659;41.622;2.276;2023-02-28T16:04:56;14;13;
62591;PMS5003;48659;41.622;2.276;2023-02-28T16:07:25;10;10;
62591;PMS5003;48659;41.622;2.276;2023-02-28T16:09:53;11;11;
62591;PMS5003;48659;41.622;2.276;2023-02-28T16:12:21;11;10;
62591;PMS5003;48659;41.622;2.276;2023-02-28T16:14:54;15;14;
62591;PMS5003;48659;41.622;2.276;2023-02-28T16:17:26;17;15;
62591;PMS5003;48659;41.622;2.276;2023-02-28T16:19:55;15;14;
62591;PMS5003;48659;41.622;2.276;2023-02-28T16:22:22;16;14;
62591;PMS5003;48659;41.622;2.276;2023-02-28T16:24:49;16;12;
62591;PMS5003;48659;41.622;2.276;2023-02-28T16:27:18;20;16;
62591;PMS5003;48659;41.622;2.276;2023-02-28T16:29:50;14;14;
62591;PMS5003;48659;41.622;2.276;2023-02-28T16:32:20;17;16;
62591;PMS5003;48659;41.622;2.276;2023-02-28T16:34:47;18;18;
62591;PMS5003;48659;41.622;2.276;2023-02-28T16:37:16;20;16;
62591;PMS5003;48659;41.622;2.276;2023-02-28T16:39:45;16;16;
62591;PMS5003;48659;41.622;2.276;2023-02-28T16:42:15;20;20;
62591;PMS5003;48659;41.622;2.276;2023-02-28T16:44:47;24;19;
62591;PMS5003;48659;41.622;2.276;2023-02-28T16:47:15;17;16;
62591;PMS5003;48659;41.622;2.276;2023-02-28T16:49:43;18;17;
62591;PMS5003;48659;41.622;2.276;2023-02-28T16:52:10;20;20;
62591;PMS5003;48659;41.622;2.276;2023-02-28T16:54:38;30;26;
62591;PMS5003;48659;41.622;2.276;2023-02-28T16:57:10;20;18;
62591;PMS5003;48659;41.622;2.276;2023-02-28T16:59:50;11;10;
62591;PMS5003;48659;41.622;2.276;2023-02-28T17:02:18;14;11;
62591;PMS5003;48659;41.622;2.276;2023-02-28T17:04:46;12;12;
62591;PMS5003;48659;41.622;2.276;2023-02-28T17:07:15;15;12;
62591;PMS5003;48659;41.622;2.276;2023-02-28T17:09:43;10;10;
62591;PMS5003;48659;41.622;2.276;2023-02-28T17:12:11;12;12;
62591;PMS5003;48659;41.622;2.276;2023-02-28T17:14:39;6;6;
62591;PMS5003;48659;41.622;2.276;2023-02-28T17:17:06;6;6;